sensor_id;sensor_type;location;lat;lon;timestamp;temperature;humidity
5828;DHT22;42583;50.240;8.444;2023-10-08T00:12:01;15.20;98.90
5828;DHT22;42583;50.240;8.444;2023-10-08T00:27:02;15.20;99.20
5828;DHT22;42583;50.240;8.444;2023-10-08T00:42:06;15.10;99.40
5828;DHT22;42583;50.240;8.444;2023-10-08T00:57:15;15.20;99.50
5828;DHT22;42583;50.240;8.444;2023-10-08T01:12:22;15.20;99.10
5828;DHT22;42583;50.240;8.444;2023-10-08T01:27:24;15.30;98.60
5828;DHT22;42583;50.240;8.444;2023-10-08T01:42:29;15.30;98.30
5828;DHT22;42583;50.240;8.444;2023-10-08T01:57:33;15.20;97.80
5828;DHT22;42583;50.240;8.444;2023-10-08T02:12:33;15.10;97.70
5828;DHT22;42583;50.240;8.444;2023-10-08T02:27:35;14.90;97.80
5828;DHT22;42583;50.240;8.444;2023-10-08T02:42:37;14.60;98.20
5828;DHT22;42583;50.240;8.444;2023-10-08T02:57:38;14.50;98.70
5828;DHT22;42583;50.240;8.444;2023-10-08T03:12:45;14.60;98.80
5828;DHT22;42583;50.240;8.444;2023-10-08T03:27:50;14.70;98.50
5828;DHT22;42583;50.240;8.444;2023-10-08T03:42:51;14.70;98.20
5828;DHT22;42583;50.240;8.444;2023-10-08T03:57:56;14.70;97.90
5828;DHT22;42583;50.240;8.444;2023-10-08T04:13:04;14.80;97.70
5828;DHT22;42583;50.240;8.444;2023-10-08T04:28:09;14.90;97.70
5828;DHT22;42583;50.240;8.444;2023-10-08T04:43:21;14.90;97.30
5828;DHT22;42583;50.240;8.444;2023-10-08T04:58:28;14.80;97.10
5828;DHT22;42583;50.240;8.444;2023-10-08T05:13:33;14.70;97.10
5828;DHT22;42583;50.240;8.444;2023-10-08T05:28:45;14.60;97.10
5828;DHT22;42583;50.240;8.444;2023-10-08T05:44:01;14.50;97.30
5828;DHT22;42583;50.240;8.444;2023-10-08T05:59:20;14.50;97.50
5828;DHT22;42583;50.240;8.444;2023-10-08T06:14:27;14.40;97.60
5828;DHT22;42583;50.240;8.444;2023-10-08T06:29:52;14.50;97.60
5828;DHT22;42583;50.240;8.444;2023-10-08T06:44:55;14.50;97.80
5828;DHT22;42583;50.240;8.444;2023-10-08T06:59:58;14.50;97.60
5828;DHT22;42583;50.240;8.444;2023-10-08T07:15:00;14.60;97.60
5828;DHT22;42583;50.240;8.444;2023-10-08T07:30:02;14.70;97.50
5828;DHT22;42583;50.240;8.444;2023-10-08T07:45:10;14.80;97.50
5828;DHT22;42583;50.240;8.444;2023-10-08T08:00:17;15.00;97.80
5828;DHT22;42583;50.240;8.444;2023-10-08T08:15:33;15.30;97.90
5828;DHT22;42583;50.240;8.444;2023-10-08T08:30:35;15.60;97.50
5828;DHT22;42583;50.240;8.444;2023-10-08T08:45:37;15.70;97.40
5828;DHT22;42583;50.240;8.444;2023-10-08T09:00:41;16.10;97.80
5828;DHT22;42583;50.240;8.444;2023-10-08T09:15:42;17.10;97.40
5828;DHT22;42583;50.240;8.444;2023-10-08T09:30:43;17.30;96.20
5828;DHT22;42583;50.240;8.444;2023-10-08T09:45:55;17.80;96.20
5828;DHT22;42583;50.240;8.444;2023-10-08T10:00:59;19.10;94.70
5828;DHT22;42583;50.240;8.444;2023-10-08T10:16:00;19.70;94.60
5828;DHT22;42583;50.240;8.444;2023-10-08T10:31:02;20.10;92.60
5828;DHT22;42583;50.240;8.444;2023-10-08T10:46:04;22.10;93.80
5828;DHT22;42583;50.240;8.444;2023-10-08T11:01:26;26.60;88.00
5828;DHT22;42583;50.240;8.444;2023-10-08T11:16:29;28.10;73.60
5828;DHT22;42583;50.240;8.444;2023-10-08T11:31:32;29.90;67.10
5828;DHT22;42583;50.240;8.444;2023-10-08T11:46:35;29.80;59.50
5828;DHT22;42583;50.240;8.444;2023-10-08T12:01:39;31.50;55.60
5828;DHT22;42583;50.240;8.444;2023-10-08T12:16:42;34.10;49.00
5828;DHT22;42583;50.240;8.444;2023-10-08T12:31:45;36.20;44.60
5828;DHT22;42583;50.240;8.444;2023-10-08T12:46:48;34.30;43.30
5828;DHT22;42583;50.240;8.444;2023-10-08T13:01:50;33.20;43.20
5828;DHT22;42583;50.240;8.444;2023-10-08T13:16:54;33.90;42.90
5828;DHT22;42583;50.240;8.444;2023-10-08T13:31:56;35.50;41.90
5828;DHT22;42583;50.240;8.444;2023-10-08T13:46:58;36.30;38.20
5828;DHT22;42583;50.240;8.444;2023-10-08T14:02:00;32.00;40.00
5828;DHT22;42583;50.240;8.444;2023-10-08T14:17:02;28.20;43.80
5828;DHT22;42583;50.240;8.444;2023-10-08T14:32:06;25.00;47.80
5828;DHT22;42583;50.240;8.444;2023-10-08T14:47:09;23.10;50.30
5828;DHT22;42583;50.240;8.444;2023-10-08T15:02:09;22.20;52.60
5828;DHT22;42583;50.240;8.444;2023-10-08T15:17:11;21.30;55.00
5828;DHT22;42583;50.240;8.444;2023-10-08T15:32:13;20.50;58.00
5828;DHT22;42583;50.240;8.444;2023-10-08T15:47:14;20.00;60.00
5828;DHT22;42583;50.240;8.444;2023-10-08T16:02:14;19.70;62.40
5828;DHT22;42583;50.240;8.444;2023-10-08T16:17:15;19.30;66.20
5828;DHT22;42583;50.240;8.444;2023-10-08T16:32:16;18.90;68.80
5828;DHT22;42583;50.240;8.444;2023-10-08T16:47:17;18.50;71.50
5828;DHT22;42583;50.240;8.444;2023-10-08T17:02:18;18.10;77.20
5828;DHT22;42583;50.240;8.444;2023-10-08T17:17:19;17.90;83.10
5828;DHT22;42583;50.240;8.444;2023-10-08T17:32:19;17.70;87.40
5828;DHT22;42583;50.240;8.444;2023-10-08T17:47:22;17.50;90.10
5828;DHT22;42583;50.240;8.444;2023-10-08T18:02:23;17.40;91.20
5828;DHT22;42583;50.240;8.444;2023-10-08T18:17:26;17.30;92.60
5828;DHT22;42583;50.240;8.444;2023-10-08T18:32:27;17.20;93.70
5828;DHT22;42583;50.240;8.444;2023-10-08T18:47:29;17.20;94.00
5828;DHT22;42583;50.240;8.444;2023-10-08T19:02:33;17.20;94.40
5828;DHT22;42583;50.240;8.444;2023-10-08T19:17:34;16.90;95.00
5828;DHT22;42583;50.240;8.444;2023-10-08T19:32:34;16.70;95.70
5828;DHT22;42583;50.240;8.444;2023-10-08T19:47:35;16.60;96.20
5828;DHT22;42583;50.240;8.444;2023-10-08T20:02:35;16.80;96.50
5828;DHT22;42583;50.240;8.444;2023-10-08T20:17:41;16.90;96.40
5828;DHT22;42583;50.240;8.444;2023-10-08T20:32:44;16.90;96.10
5828;DHT22;42583;50.240;8.444;2023-10-08T20:47:45;16.90;96.10
5828;DHT22;42583;50.240;8.444;2023-10-08T21:02:50;16.80;96.60
5828;DHT22;42583;50.240;8.444;2023-10-08T21:17:51;16.80;97.00
5828;DHT22;42583;50.240;8.444;2023-10-08T21:32:54;16.70;97.30
5828;DHT22;42583;50.240;8.444;2023-10-08T21:47:59;16.60;97.80
5828;DHT22;42583;50.240;8.444;2023-10-08T22:03:01;16.50;98.30
5828;DHT22;42583;50.240;8.444;2023-10-08T22:18:02;16.50;98.50
5828;DHT22;42583;50.240;8.444;2023-10-08T22:33:03;16.50;98.40
5828;DHT22;42583;50.240;8.444;2023-10-08T22:48:06;16.50;98.40
5828;DHT22;42583;50.240;8.444;2023-10-08T23:03:06;16.50;98.70
5828;DHT22;42583;50.240;8.444;2023-10-08T23:18:07;16.60;99.00
5828;DHT22;42583;50.240;8.444;2023-10-08T23:33:08;16.60;99.20
5828;DHT22;42583;50.240;8.444;2023-10-08T23:48:10;16.60;99.20
